Time;durP1;ratioP1;P1;durP2;ratioP2;P2;SDS_P1;SDS_P2;PMS_P1;PMS_P2;Temp;Humidity;BMP_temperature;BMP_pressure;BME280_temperature;BME280_humidity;BME280_pressure;Samples;Min_cycle;Max_cycle;Signal;HPM_P1;HPM_P2
2022/08/07 00:01:13;;;;;;;0.00;0.00;;;;;;;11.85;94.54;101435.19;5013485;28;20168;-75
2022/08/07 00:03:39;;;;;;;0.37;0.37;;;;;;;11.77;95.75;101433.91;5012305;28;20517;-75
2022/08/07 00:06:04;;;;;;;0.00;0.00;;;;;;;11.80;95.78;101440.72;5013435;28;20196;-76
2022/08/07 00:08:30;;;;;;;0.00;0.00;;;;;;;11.89;96.42;101445.25;5010993;28;20192;-76
2022/08/07 00:10:56;;;;;;;0.13;0.10;;;;;;;11.98;96.11;101430.88;5028009;28;20692;-76
2022/08/07 00:13:22;;;;;;;0.30;0.30;;;;;;;12.01;96.06;101433.88;5013692;28;20271;-76
2022/08/07 00:15:49;;;;;;;0.00;0.00;;;;;;;11.99;95.66;101438.81;5014080;28;20176;-76
2022/08/07 00:18:16;;;;;;;0.00;0.00;;;;;;;11.88;95.38;101429.94;5013177;28;20227;-76
2022/08/07 00:20:41;;;;;;;0.10;0.10;;;;;;;11.78;95.53;101438.25;5014076;28;20176;-75
2022/08/07 00:23:07;;;;;;;0.00;0.00;;;;;;;11.80;96.14;101433.34;5013903;28;20269;-76
2022/08/07 00:25:33;;;;;;;0.27;0.27;;;;;;;11.82;97.11;101428.38;5013546;28;20177;-75
2022/08/07 00:27:59;;;;;;;0.03;0.03;;;;;;;11.81;96.80;101432.22;5013027;28;20189;-76
2022/08/07 00:30:25;;;;;;;0.10;0.10;;;;;;;11.78;96.73;101432.78;5011703;28;20534;-77
2022/08/07 00:32:51;;;;;;;0.43;0.43;;;;;;;11.75;96.65;101441.59;5013444;28;20295;-76
2022/08/07 00:35:20;;;;;;;0.00;0.00;;;;;;;11.76;96.21;101440.47;5013435;28;20226;-76
2022/08/07 00:37:46;;;;;;;0.10;0.10;;;;;;;11.77;95.67;101431.16;5012907;28;20197;-75
2022/08/07 00:40:12;;;;;;;0.30;0.30;;;;;;;11.78;94.95;101440.19;5011406;28;20175;-75
2022/08/07 00:42:38;;;;;;;0.00;0.00;;;;;;;11.67;95.50;101435.94;5013426;28;20232;-75
2022/08/07 00:45:04;;;;;;;0.33;0.33;;;;;;;11.50;95.91;101434.53;5013081;28;20589;-76
2022/08/07 00:47:30;;;;;;;0.47;0.47;;;;;;;11.45;97.16;101445.53;5012773;28;20172;-75
2022/08/07 00:49:55;;;;;;;0.00;0.00;;;;;;;11.46;98.16;101438.16;5012594;28;20176;-75
2022/08/07 00:52:21;;;;;;;0.00;0.00;;;;;;;11.46;98.01;101433.50;5013069;28;20175;-76
2022/08/07 00:54:47;;;;;;;0.00;0.00;;;;;;;11.47;98.93;101434.31;5012946;28;20177;-76
2022/08/07 00:57:12;;;;;;;0.00;0.00;;;;;;;11.41;98.82;101436.28;5011351;28;20203;-75
2022/08/07 00:59:38;;;;;;;0.00;0.00;;;;;;;11.35;98.53;101423.78;5012387;28;20542;-75
2022/08/07 01:02:05;;;;;;;0.30;0.30;;;;;;;11.30;98.80;101426.59;5012843;28;20169;-76
2022/08/07 01:04:31;;;;;;;0.30;0.30;;;;;;;11.23;98.78;101437.03;5012742;28;20180;-75
2022/08/07 01:06:56;;;;;;;0.27;0.27;;;;;;;11.18;98.89;101432.47;5011649;28;20168;-75
2022/08/07 01:09:22;;;;;;;0.00;0.00;;;;;;;11.12;98.95;101438.25;5010844;28;20172;-76
2022/08/07 01:11:49;;;;;;;0.10;0.10;;;;;;;11.04;99.74;101434.25;5011384;28;20169;-76
2022/08/07 01:14:15;;;;;;;0.00;0.00;;;;;;;11.01;99.86;101435.66;5012527;28;20637;-76
2022/08/07 01:16:41;;;;;;;0.00;0.00;;;;;;;11.01;100.00;101432.09;5012398;28;20172;-76
2022/08/07 01:19:07;;;;;;;0.70;0.70;;;;;;;10.99;100.00;101428.81;5011806;28;20719;-76
2022/08/07 01:21:33;;;;;;;0.00;0.00;;;;;;;10.99;100.00;101437.03;5012376;28;20188;-76
2022/08/07 01:24:00;;;;;;;0.00;0.00;;;;;;;10.94;100.00;101428.88;5011336;28;20176;-76
2022/08/07 01:26:26;;;;;;;0.27;0.27;;;;;;;10.91;100.00;101433.03;5012253;28;20176;-74
2022/08/07 01:28:53;;;;;;;0.00;0.00;;;;;;;10.89;100.00;101429.75;5011706;28;20184;-74
2022/08/07 01:31:19;;;;;;;0.00;0.00;;;;;;;10.88;100.00;101428.13;5011190;28;20222;-75
2022/08/07 01:33:46;;;;;;;0.00;0.00;;;;;;;10.85;100.00;101433.34;5012380;28;20188;-75
2022/08/07 01:36:12;;;;;;;0.20;0.20;;;;;;;10.80;100.00;101423.28;5012679;28;20176;-74
2022/08/07 01:38:38;;;;;;;0.20;0.20;;;;;;;10.79;100.00;101420.84;5010032;28;20219;-75
2022/08/07 01:41:08;;;;;;;0.30;0.30;;;;;;;10.87;100.00;101428.44;5012237;28;20173;-75
2022/08/07 01:43:35;;;;;;;0.00;0.00;;;;;;;10.89;100.00;101420.75;5012263;28;20169;-75
2022/08/07 01:46:01;;;;;;;0.00;0.00;;;;;;;10.93;100.00;101430.00;5011906;28;20188;-75
2022/08/07 01:48:27;;;;;;;0.10;0.10;;;;;;;10.99;100.00;101426.94;5017271;28;20169;-76
2022/08/07 01:51:00;;;;;;;0.00;0.00;;;;;;;11.06;100.00;101420.28;5012801;28;20183;-75
2022/08/07 01:53:28;;;;;;;0.00;0.00;;;;;;;11.12;100.00;101422.66;5011103;28;20180;-75
2022/08/07 01:56:04;;;;;;;0.50;0.50;;;;;;;11.10;100.00;101419.41;5012419;28;20628;-76
2022/08/07 01:58:35;;;;;;;0.20;0.20;;;;;;;11.06;100.00;101418.38;5011906;28;20207;-76
2022/08/07 02:01:06;;;;;;;0.00;0.00;;;;;;;10.96;100.00;101416.56;5012368;28;20169;-75
2022/08/07 02:03:33;;;;;;;0.40;0.30;;;;;;;10.91;100.00;101422.09;5012244;28;20180;-75
2022/08/07 02:06:05;;;;;;;0.00;0.00;;;;;;;10.83;100.00;101419.97;5011875;28;20185;-75
2022/08/07 02:08:37;;;;;;;0.00;0.00;;;;;;;10.75;100.00;101417.06;5009923;28;20188;-75
2022/08/07 02:11:03;;;;;;;0.00;0.00;;;;;;;10.73;100.00;101411.88;5010644;28;20260;-76
2022/08/07 02:13:32;;;;;;;0.00;0.00;;;;;;;10.70;100.00;101416.03;5011794;28;20180;-74
2022/08/07 02:16:00;;;;;;;0.00;0.00;;;;;;;10.72;100.00;101421.19;5011720;28;20184;-75
2022/08/07 02:18:28;;;;;;;0.20;0.20;;;;;;;10.77;100.00;101431.25;5010850;28;20302;-75
2022/08/07 02:20:56;;;;;;;0.13;0.13;;;;;;;10.80;100.00;101417.81;5010336;28;20267;-76
2022/08/07 02:23:23;;;;;;;0.10;0.10;;;;;;;10.78;100.00;101411.00;5011598;28;20180;-76
2022/08/07 02:25:49;;;;;;;0.00;0.00;;;;;;;10.72;100.00;101410.25;5011560;28;20176;-74
2022/08/07 02:28:17;;;;;;;0.47;0.43;;;;;;;10.68;100.00;101414.66;5010385;28;20706;-76
2022/08/07 02:30:43;;;;;;;0.00;0.00;;;;;;;10.63;100.00;101407.31;5010593;28;20189;-75
2022/08/07 02:33:12;;;;;;;0.20;0.20;;;;;;;10.54;100.00;101408.22;5011145;28;20192;-76
2022/08/07 02:35:39;;;;;;;0.00;0.00;;;;;;;10.56;100.00;101411.47;5042908;28;20196;-76
2022/08/07 02:38:07;;;;;;;0.00;0.00;;;;;;;10.48;100.00;101406.66;5011009;28;20212;-76
2022/08/07 02:40:33;;;;;;;0.10;0.10;;;;;;;10.57;100.00;101413.94;5010134;28;20181;-75
2022/08/07 02:43:00;;;;;;;0.00;0.00;;;;;;;10.59;100.00;101406.28;5009874;28;20177;-75
2022/08/07 02:45:29;;;;;;;0.40;0.40;;;;;;;10.69;100.00;101408.06;5009662;28;20187;-76
2022/08/07 02:47:54;;;;;;;2.73;2.07;;;;;;;10.65;100.00;101416.03;5010791;28;20187;-75
2022/08/07 02:50:20;;;;;;;0.00;0.00;;;;;;;10.66;100.00;101404.00;5009418;28;20176;-76
2022/08/07 02:53:06;;;;;;;0.07;0.07;;;;;;;10.68;100.00;101401.81;5011067;28;20703;-74
2022/08/07 02:55:36;;;;;;;0.00;0.00;;;;;;;10.68;100.00;101410.00;5009907;28;20177;-74
2022/08/07 02:58:05;;;;;;;0.23;0.23;;;;;;;10.74;100.00;101408.06;5010490;28;20199;-77
2022/08/07 03:00:34;;;;;;;0.00;0.00;;;;;;;10.68;100.00;101403.72;5010777;28;20660;-74
2022/08/07 03:03:01;;;;;;;1.13;1.03;;;;;;;10.68;100.00;101414.66;5011055;28;20585;-76
2022/08/07 03:05:27;;;;;;;0.13;0.13;;;;;;;10.64;100.00;101413.59;5010863;28;20189;-76
2022/08/07 03:07:54;;;;;;;0.00;0.00;;;;;;;10.63;100.00;101411.97;5009321;28;20182;-76
2022/08/07 03:10:21;;;;;;;0.17;0.17;;;;;;;10.60;100.00;101412.56;5010407;28;20254;-76
2022/08/07 03:12:47;;;;;;;3.07;0.47;;;;;;;10.50;100.00;101412.66;5010877;28;20675;-75
2022/08/07 03:15:13;;;;;;;0.00;0.00;;;;;;;10.41;100.00;101409.69;5010927;28;20176;-76
2022/08/07 03:17:40;;;;;;;0.00;0.00;;;;;;;10.33;100.00;101421.25;5010301;28;20323;-75
2022/08/07 03:20:06;;;;;;;0.00;0.00;;;;;;;10.25;100.00;101409.00;5010374;28;20168;-76
2022/08/07 03:22:33;;;;;;;0.00;0.00;;;;;;;10.23;100.00;101413.13;5010664;28;20185;-75
2022/08/07 03:24:59;;;;;;;0.00;0.00;;;;;;;10.25;100.00;101419.13;5010577;28;20177;-76
2022/08/07 03:27:26;;;;;;;0.00;0.00;;;;;;;10.31;100.00;101416.09;5010121;28;20193;-77
2022/08/07 03:29:52;;;;;;;0.00;0.00;;;;;;;10.39;100.00;101414.63;5009899;28;20181;-75
2022/08/07 03:32:41;;;;;;;0.00;0.00;;;;;;;10.49;100.00;101416.47;5014440;28;20177;-76
2022/08/07 03:35:12;;;;;;;0.00;0.00;;;;;;;10.56;100.00;101417.78;5008934;28;20188;-75
2022/08/07 03:37:39;;;;;;;0.27;0.27;;;;;;;10.59;100.00;101422.69;5012764;28;20200;-76
2022/08/07 03:40:06;;;;;;;0.00;0.00;;;;;;;10.58;100.00;101421.06;5012701;28;20651;-77
2022/08/07 03:42:34;;;;;;;0.00;0.00;;;;;;;10.59;100.00;101419.13;5014267;28;20263;-76
2022/08/07 03:45:00;;;;;;;0.00;0.00;;;;;;;10.56;100.00;101416.94;5014287;28;20181;-76
2022/08/07 03:47:27;;;;;;;0.00;0.00;;;;;;;10.50;100.00;101421.66;5014162;28;20191;-76
2022/08/07 03:49:53;;;;;;;0.67;0.67;;;;;;;10.43;100.00;101413.81;5014494;28;20216;-76
2022/08/07 03:52:22;;;;;;;0.00;0.00;;;;;;;10.41;100.00;101421.47;5017009;28;20537;-76
2022/08/07 03:54:47;;;;;;;0.00;0.00;;;;;;;10.42;100.00;101419.56;5012874;28;20183;-75
2022/08/07 03:57:14;;;;;;;0.00;0.00;;;;;;;10.37;100.00;101417.66;5012270;28;20181;-76
2022/08/07 03:59:41;;;;;;;0.00;0.00;;;;;;;10.30;100.00;101411.72;5013843;28;20169;-76
2022/08/07 04:02:07;;;;;;;0.00;0.00;;;;;;;10.35;100.00;101416.31;5013926;28;20222;-76
2022/08/07 04:04:33;;;;;;;0.00;0.00;;;;;;;10.41;100.00;101420.63;5013827;28;20181;-77
2022/08/07 04:06:59;;;;;;;0.00;0.00;;;;;;;10.46;100.00;101412.41;5013600;28;20181;-77
2022/08/07 04:09:24;;;;;;;0.00;0.00;;;;;;;10.49;100.00;101416.47;5011936;28;20223;-76
2022/08/07 04:11:51;;;;;;;0.00;0.00;;;;;;;10.54;100.00;101425.44;5013694;28;20675;-76
2022/08/07 04:14:16;;;;;;;0.00;0.00;;;;;;;10.56;100.00;101420.53;5013676;28;20267;-76
2022/08/07 04:16:42;;;;;;;0.00;0.00;;;;;;;10.59;100.00;101422.69;5013357;28;20268;-77
2022/08/07 04:19:08;;;;;;;0.00;0.00;;;;;;;10.57;100.00;101421.34;5012975;28;20211;-76
2022/08/07 04:21:34;;;;;;;0.00;0.00;;;;;;;10.60;100.00;101424.31;5013303;28;20181;-77
2022/08/07 04:24:00;;;;;;;0.00;0.00;;;;;;;10.63;100.00;101422.91;5013389;28;20195;-76
2022/08/07 04:26:26;;;;;;;0.00;0.00;;;;;;;10.66;100.00;101423.13;5013148;28;20172;-77
2022/08/07 04:28:51;;;;;;;0.00;0.00;;;;;;;10.72;100.00;101430.22;5011165;28;20533;-76
2022/08/07 04:31:17;;;;;;;0.00;0.00;;;;;;;10.73;100.00;101429.09;5013279;28;20188;-76
2022/08/07 04:33:45;;;;;;;0.00;0.00;;;;;;;10.75;100.00;101423.34;5013197;28;20180;-77
2022/08/07 04:36:10;;;;;;;0.00;0.00;;;;;;;10.76;100.00;101426.88;5013164;28;20168;-77
2022/08/07 04:38:36;;;;;;;0.00;0.00;;;;;;;10.79;100.00;101434.50;5012346;28;20279;-76
2022/08/07 04:41:02;;;;;;;0.00;0.00;;;;;;;10.82;100.00;101436.66;5011831;28;20177;-76
2022/08/07 04:43:32;;;;;;;0.00;0.00;;;;;;;10.87;100.00;101434.72;5013019;28;20165;-77
2022/08/07 04:46:16;;;;;;;0.00;0.00;;;;;;;10.97;100.00;101439.22;5012891;28;20183;-74
2022/08/07 04:48:51;;;;;;;0.00;0.00;;;;;;;11.04;100.00;101439.72;5012101;28;20702;-75
2022/08/07 04:51:41;;;;;;;0.00;0.00;;;;;;;11.13;100.00;101439.88;5013013;28;20247;-75
2022/08/07 04:54:34;;;;;;;0.00;0.00;;;;;;;11.16;100.00;101442.06;5012748;28;20191;-74
2022/08/07 04:57:33;;;;;;;0.00;0.00;;;;;;;11.18;100.00;101437.13;4993651;28;20642;-75
2022/08/07 05:00:05;;;;;;;0.00;0.00;;;;;;;11.30;100.00;101440.25;5006318;28;20191;-75
2022/08/07 05:02:41;;;;;;;0.00;0.00;;;;;;;11.35;100.00;101442.09;5013241;28;20258;-74
2022/08/07 05:05:34;;;;;;;0.00;0.00;;;;;;;11.33;100.00;101445.13;5012548;28;20181;-74
2022/08/07 05:08:06;;;;;;;0.00;0.00;;;;;;;11.35;100.00;101442.94;5012054;28;20223;-74
2022/08/07 05:10:44;;;;;;;0.00;0.00;;;;;;;11.45;100.00;101447.47;5012074;28;20165;-74
2022/08/07 05:13:27;;;;;;;0.00;0.00;;;;;;;11.58;100.00;101455.78;5012404;28;20207;-75
2022/08/07 05:15:53;;;;;;;0.00;0.00;;;;;;;11.70;100.00;101454.53;5012270;28;20169;-75
2022/08/07 05:18:27;;;;;;;0.00;0.00;;;;;;;11.78;100.00;101449.22;5011488;28;20563;-75
2022/08/07 05:20:57;;;;;;;0.00;0.00;;;;;;;11.89;99.63;101458.97;5012318;28;20624;-74
2022/08/07 05:23:46;;;;;;;0.00;0.00;;;;;;;12.03;99.43;101464.50;5012271;28;20164;-74
2022/08/07 05:26:19;;;;;;;0.00;0.00;;;;;;;12.13;98.77;101461.59;5012085;28;20176;-75
2022/08/07 05:28:49;;;;;;;0.00;0.00;;;;;;;12.25;99.63;101461.16;5011387;28;20708;-75
2022/08/07 05:31:18;;;;;;;0.00;0.00;;;;;;;12.35;99.10;101466.50;5012078;28;20665;-76
2022/08/07 05:33:45;;;;;;;0.00;0.00;;;;;;;12.44;97.22;101469.34;5011940;28;20184;-74
2022/08/07 05:36:12;;;;;;;0.00;0.00;;;;;;;12.52;96.31;101461.28;5012075;28;20215;-74
2022/08/07 05:38:39;;;;;;;0.00;0.00;;;;;;;12.52;94.89;101463.19;5011001;28;20208;-75
2022/08/07 05:41:04;;;;;;;0.00;0.00;;;;;;;12.60;94.31;101465.28;5011777;28;20169;-75
2022/08/07 05:43:30;;;;;;;0.00;0.00;;;;;;;12.66;92.79;101466.00;5011800;28;20625;-74
2022/08/07 05:45:57;;;;;;;0.00;0.00;;;;;;;12.83;93.88;101468.97;5010270;28;20185;-75
2022/08/07 05:48:22;;;;;;;0.00;0.00;;;;;;;12.96;93.57;101461.91;5010803;28;20713;-75
2022/08/07 05:50:48;;;;;;;0.00;0.00;;;;;;;13.06;92.96;101468.00;5010216;28;20271;-74
2022/08/07 05:53:14;;;;;;;0.00;0.00;;;;;;;13.15;92.05;101478.28;5010900;28;20199;-74
2022/08/07 05:55:40;;;;;;;0.00;0.00;;;;;;;13.21;89.84;101477.09;5011733;28;20165;-74
2022/08/07 05:58:08;;;;;;;0.00;0.00;;;;;;;13.27;89.42;101468.47;5010951;28;20197;-74
2022/08/07 06:00:36;;;;;;;0.00;0.00;;;;;;;13.35;88.96;101466.94;5011686;28;20187;-74
2022/08/07 06:03:04;;;;;;;0.00;0.00;;;;;;;13.45;88.97;101477.72;5011430;28;20175;-75
2022/08/07 06:05:30;;;;;;;0.10;0.10;;;;;;;13.46;86.44;101479.34;5011248;28;20259;-75
2022/08/07 06:07:59;;;;;;;0.00;0.00;;;;;;;13.57;86.44;101478.00;5010867;28;20193;-74
2022/08/07 06:10:25;;;;;;;0.00;0.00;;;;;;;13.63;86.00;101484.22;5010817;28;20179;-74
2022/08/07 06:12:51;;;;;;;0.00;0.00;;;;;;;13.65;84.79;101482.00;5011328;28;20258;-74
2022/08/07 06:15:17;;;;;;;0.00;0.00;;;;;;;13.80;84.02;101487.16;5011131;28;20204;-74
2022/08/07 06:17:43;;;;;;;0.00;0.00;;;;;;;13.88;84.60;101486.41;5010740;28;20200;-75
2022/08/07 06:20:09;;;;;;;0.00;0.00;;;;;;;14.02;84.74;101485.56;5010770;28;20181;-74
2022/08/07 06:22:36;;;;;;;0.00;0.00;;;;;;;14.19;84.25;101497.56;5011491;28;20180;-74
2022/08/07 06:25:04;;;;;;;0.00;0.00;;;;;;;14.24;82.76;101491.13;5011865;28;20505;-74
2022/08/07 06:27:29;;;;;;;0.00;0.00;;;;;;;14.27;82.58;101494.06;5010861;28;20597;-75
2022/08/07 06:29:54;;;;;;;0.00;0.00;;;;;;;14.26;82.76;101492.44;5010778;28;20168;-75
2022/08/07 06:32:20;;;;;;;0.00;0.00;;;;;;;14.25;82.27;101488.06;5011249;28;20239;-74
2022/08/07 06:34:45;;;;;;;0.30;0.30;;;;;;;14.40;81.62;101491.59;5007335;28;20268;-75
2022/08/07 06:37:11;;;;;;;0.00;0.00;;;;;;;14.55;81.31;101491.25;4999623;28;20524;-75
2022/08/07 06:39:37;;;;;;;0.73;0.73;;;;;;;14.76;80.95;101492.38;4998998;28;20165;-75
2022/08/07 06:42:20;;;;;;;0.00;0.00;;;;;;;14.92;81.00;101486.47;5010956;28;20242;-74
2022/08/07 06:44:48;;;;;;;0.00;0.00;;;;;;;14.89;79.15;101480.47;5011150;28;20157;-74
2022/08/07 06:47:14;;;;;;;0.00;0.00;;;;;;;15.04;78.40;101486.69;5009205;28;20223;-75
2022/08/07 06:49:40;;;;;;;0.00;0.00;;;;;;;15.20;78.94;101478.84;5009358;28;20633;-74
2022/08/07 06:52:09;;;;;;;0.00;0.00;;;;;;;15.31;77.87;101485.69;5005387;28;20243;-74
2022/08/07 06:54:36;;;;;;;0.00;0.00;;;;;;;15.42;77.10;101487.84;5000959;28;20263;-74
2022/08/07 06:57:03;;;;;;;0.00;0.00;;;;;;;15.42;75.68;101485.09;5010576;28;20191;-73
2022/08/07 06:59:32;;;;;;;0.00;0.00;;;;;;;15.60;76.30;101483.22;5010419;28;20231;-74
2022/08/07 07:01:59;;;;;;;0.00;0.00;;;;;;;15.62;74.81;101483.75;5006183;28;20427;-74
2022/08/07 07:04:25;;;;;;;0.00;0.00;;;;;;;15.77;74.58;101482.50;5040497;28;20649;-73
2022/08/07 07:06:51;;;;;;;0.00;0.00;;;;;;;15.78;73.42;101484.09;5012985;28;20188;-74
2022/08/07 07:09:24;;;;;;;0.00;0.00;;;;;;;15.86;74.36;101480.53;5014351;28;20568;-74
2022/08/07 07:11:56;;;;;;;0.00;0.00;;;;;;;15.99;72.19;101476.84;5014527;28;20641;-75
2022/08/07 07:14:26;;;;;;;0.20;0.20;;;;;;;16.14;70.89;101481.06;5014631;28;20203;-74
2022/08/07 07:16:55;;;;;;;0.00;0.00;;;;;;;16.09;71.42;101485.94;5014329;28;20191;-74
2022/08/07 07:19:26;;;;;;;0.00;0.00;;;;;;;16.12;71.71;101485.28;5013146;28;20226;-79
2022/08/07 07:21:53;;;;;;;0.00;0.00;;;;;;;16.19;71.93;101480.09;5014635;28;20215;-79
2022/08/07 07:24:19;;;;;;;0.00;0.00;;;;;;;16.38;72.50;101479.78;5014389;28;20660;-75
2022/08/07 07:26:46;;;;;;;0.00;0.00;;;;;;;16.59;72.11;101481.53;5013912;28;20265;-76
2022/08/07 07:29:16;;;;;;;0.00;0.00;;;;;;;16.51;70.30;101478.81;5013582;28;20184;-76
2022/08/07 07:31:46;;;;;;;0.20;0.20;;;;;;;16.72;71.36;101477.00;5013705;28;20756;-75
2022/08/07 07:34:18;;;;;;;0.00;0.00;;;;;;;16.73;70.24;101472.28;5013055;28;20279;-75
2022/08/07 07:36:44;;;;;;;0.10;0.10;;;;;;;16.77;70.88;101471.31;5014004;28;20172;-75
2022/08/07 07:39:12;;;;;;;0.00;0.00;;;;;;;16.79;69.21;101482.03;5013767;28;20212;-75
2022/08/07 07:41:40;;;;;;;0.50;0.50;;;;;;;16.80;68.72;101481.72;5014164;28;20172;-75
2022/08/07 07:44:08;;;;;;;0.00;0.00;;;;;;;16.87;69.29;101470.16;5014309;28;20184;-75
2022/08/07 07:46:36;;;;;;;0.10;0.10;;;;;;;16.95;69.91;101461.06;5012705;28;20177;-73
2022/08/07 07:49:03;;;;;;;0.00;0.00;;;;;;;17.06;69.19;101473.34;5013535;28;20187;-76
2022/08/07 07:51:30;;;;;;;0.00;0.00;;;;;;;17.28;68.61;101468.72;5010752;28;20224;-75
2022/08/07 07:53:57;;;;;;;0.40;0.40;;;;;;;17.32;67.20;101469.66;5013594;28;20663;-76
2022/08/07 07:56:25;;;;;;;0.00;0.00;;;;;;;17.28;68.33;101463.19;5014369;28;20177;-75
2022/08/07 07:58:52;;;;;;;0.30;0.30;;;;;;;17.49;67.30;101467.63;5008582;28;20267;-75
2022/08/07 08:01:19;;;;;;;0.00;0.00;;;;;;;17.57;66.82;101463.22;5012663;28;20695;-75
2022/08/07 08:03:45;;;;;;;0.27;0.27;;;;;;;17.54;65.24;101461.94;5013940;28;20463;-76
2022/08/07 08:06:12;;;;;;;0.00;0.00;;;;;;;17.65;66.56;101451.31;5013712;28;20570;-76
2022/08/07 08:08:40;;;;;;;0.00;0.00;;;;;;;17.85;67.20;101449.75;5013329;28;20629;-75
2022/08/07 08:11:07;;;;;;;0.00;0.00;;;;;;;17.82;64.70;101450.41;5013802;28;20168;-75
2022/08/07 08:13:39;;;;;;;0.00;0.00;;;;;;;18.04;66.61;101452.84;5013782;28;20223;-75
2022/08/07 08:16:06;;;;;;;0.00;0.00;;;;;;;18.18;65.56;101451.75;5013290;28;20581;-76
2022/08/07 08:18:33;;;;;;;0.00;0.00;;;;;;;18.07;65.33;101451.34;5011628;28;20208;-74
2022/08/07 08:21:00;;;;;;;0.00;0.00;;;;;;;17.95;64.06;101449.34;5012884;28;20172;-75
2022/08/07 08:29:01;;;;;;;0.23;0.23;;;;;;;18.23;63.68;101446.03;5012549;28;20876;-75
2022/08/07 08:31:34;;;;;;;0.03;0.00;;;;;;;18.44;63.43;101449.59;5015026;28;20217;-75
2022/08/07 08:34:02;;;;;;;0.17;0.17;;;;;;;18.35;63.17;101443.31;5018918;28;20176;-74
2022/08/07 08:36:30;;;;;;;0.27;0.27;;;;;;;18.50;62.60;101452.94;5014384;28;20259;-75
2022/08/07 08:38:59;;;;;;;0.53;0.50;;;;;;;18.47;62.41;101442.56;5013085;28;20257;-75
2022/08/07 08:41:40;;;;;;;0.20;0.20;;;;;;;18.60;62.00;101446.97;5013878;28;20173;-75
2022/08/07 08:44:23;;;;;;;0.17;0.17;;;;;;;18.84;61.68;101447.09;5013502;28;20179;-74
2022/08/07 08:47:23;;;;;;;0.00;0.00;;;;;;;18.65;61.22;101444.81;5013289;28;20259;-75
2022/08/07 08:50:14;;;;;;;0.00;0.00;;;;;;;18.99;61.97;101445.63;4999079;28;20211;-74
2022/08/07 08:52:57;;;;;;;0.30;0.30;;;;;;;18.89;60.08;101441.31;5012875;28;20161;-75
2022/08/07 08:55:37;;;;;;;0.00;0.00;;;;;;;18.93;59.94;101438.66;5011148;28;20204;-73
2022/08/07 08:58:12;;;;;;;0.30;0.30;;;;;;;18.89;58.69;101440.50;5008610;28;20208;-73
2022/08/07 09:00:50;;;;;;;0.00;0.00;;;;;;;19.23;59.42;101439.28;5012812;28;20184;-73
2022/08/07 09:03:43;;;;;;;0.03;0.03;;;;;;;19.45;57.28;101444.38;4998582;28;20178;-73
2022/08/07 09:06:26;;;;;;;0.10;0.10;;;;;;;19.27;56.07;101440.22;5001340;28;20187;-73
2022/08/07 09:09:09;;;;;;;0.00;0.00;;;;;;;19.30;56.39;101431.22;5012315;28;20164;-74
2022/08/07 09:11:49;;;;;;;0.83;0.77;;;;;;;19.43;55.30;101432.81;5012807;28;20289;-73
2022/08/07 09:14:31;;;;;;;0.00;0.00;;;;;;;19.37;53.93;101436.97;5013016;28;20173;-74
2022/08/07 09:17:25;;;;;;;0.00;0.00;;;;;;;19.64;53.84;101435.47;5012684;28;20164;-73
2022/08/07 09:20:28;;;;;;;0.00;0.00;;;;;;;19.78;54.53;101429.56;5012466;28;20267;-74
2022/08/07 09:23:08;;;;;;;0.07;0.07;;;;;;;19.76;53.44;101420.81;5012598;28;20656;-74
2022/08/07 09:26:02;;;;;;;0.00;0.00;;;;;;;19.73;52.89;101421.50;5012376;28;20164;-74
2022/08/07 09:28:34;;;;;;;0.00;0.00;;;;;;;19.87;54.29;101419.97;5010527;28;20791;-74
2022/08/07 09:31:09;;;;;;;0.00;0.00;;;;;;;20.01;52.93;101414.03;5012251;28;20259;-75
2022/08/07 09:33:50;;;;;;;0.10;0.00;;;;;;;19.99;52.10;101419.13;5012147;28;20620;-74
2022/08/07 09:36:30;;;;;;;0.10;0.10;;;;;;;20.20;52.56;101416.16;5012192;28;20170;-74
2022/08/07 09:39:08;;;;;;;0.10;0.10;;;;;;;20.24;52.04;101416.25;5011775;28;20212;-74
2022/08/07 09:41:39;;;;;;;0.00;0.00;;;;;;;20.26;49.50;101411.19;5012072;28;20234;-74
2022/08/07 09:44:33;;;;;;;0.13;0.13;;;;;;;20.08;50.83;101411.47;5010673;28;20318;-74
2022/08/07 09:47:27;;;;;;;0.23;0.23;;;;;;;20.01;51.29;101413.22;5011477;28;20702;-74
2022/08/07 09:50:29;;;;;;;0.00;0.00;;;;;;;19.54;50.74;101397.13;5011453;28;20170;-74
2022/08/07 09:53:04;;;;;;;0.00;0.00;;;;;;;19.39;50.82;101406.16;5010395;28;20208;-74
2022/08/07 09:55:35;;;;;;;0.20;0.20;;;;;;;19.38;50.84;101410.06;5011684;28;20183;-75
2022/08/07 09:58:37;;;;;;;0.00;0.00;;;;;;;19.28;51.62;101403.03;5010439;28;20208;-73
2022/08/07 10:01:14;;;;;;;0.00;0.00;;;;;;;19.44;52.46;101397.59;5011524;28;20242;-74
2022/08/07 10:04:01;;;;;;;0.37;0.37;;;;;;;19.82;51.92;101400.00;5011470;28;20173;-73
2022/08/07 10:07:04;;;;;;;0.00;0.00;;;;;;;20.06;51.78;101396.31;5011765;28;20264;-74
2022/08/07 10:09:58;;;;;;;0.00;0.00;;;;;;;20.33;49.17;101394.72;5006581;28;20188;-74
2022/08/07 10:12:42;;;;;;;0.00;0.00;;;;;;;20.64;49.76;101389.25;5011947;28;20267;-73
2022/08/07 10:15:32;;;;;;;0.30;0.30;;;;;;;20.67;47.96;101384.94;5010115;28;20188;-73
2022/08/07 10:18:23;;;;;;;0.00;0.00;;;;;;;20.61;49.85;101389.97;5011074;28;20292;-74
2022/08/07 10:21:25;;;;;;;0.00;0.00;;;;;;;20.62;50.17;101383.25;5011653;28;20224;-73
2022/08/07 10:24:18;;;;;;;0.00;0.00;;;;;;;20.92;49.67;101372.50;5011651;28;20176;-74
2022/08/07 10:27:11;;;;;;;0.00;0.00;;;;;;;20.92;48.62;101372.50;5010807;28;20200;-73
2022/08/07 10:29:54;;;;;;;0.00;0.00;;;;;;;21.12;48.26;101376.19;5010768;28;20219;-73
2022/08/07 10:32:22;;;;;;;0.10;0.10;;;;;;;20.78;47.66;101381.28;5011183;28;20186;-73
2022/08/07 10:35:14;;;;;;;0.00;0.00;;;;;;;21.14;48.43;101376.63;5009997;28;20601;-73
2022/08/07 10:38:01;;;;;;;0.00;0.00;;;;;;;21.28;46.78;101367.84;4991950;28;20213;-74
2022/08/07 10:40:39;;;;;;;0.00;0.00;;;;;;;21.17;46.02;101370.34;5010410;28;20241;-73
2022/08/07 10:43:26;;;;;;;0.00;0.00;;;;;;;21.37;46.75;101376.78;5010931;28;20182;-73
2022/08/07 10:45:56;;;;;;;0.00;0.00;;;;;;;21.53;45.62;101373.97;5009625;28;20191;-72
2022/08/07 10:48:40;;;;;;;0.00;0.00;;;;;;;21.36;45.21;101375.97;5010024;28;20595;-73
2022/08/07 10:51:12;;;;;;;0.00;0.00;;;;;;;21.58;46.41;101368.13;5010790;28;20641;-74
2022/08/07 10:54:02;;;;;;;0.00;0.00;;;;;;;21.90;45.01;101369.63;5010719;28;20172;-74
2022/08/07 10:56:53;;;;;;;0.00;0.00;;;;;;;22.01;45.09;101366.25;5010780;28;20182;-73
2022/08/07 10:59:43;;;;;;;0.00;0.00;;;;;;;22.27;45.55;101352.47;5009578;28;20301;-73
2022/08/07 11:02:14;;;;;;;0.00;0.00;;;;;;;22.25;45.26;101350.06;5010837;28;20174;-74
2022/08/07 11:04:40;;;;;;;0.00;0.00;;;;;;;22.27;44.09;101347.72;5009430;28;20187;-73
2022/08/07 11:07:27;;;;;;;0.00;0.00;;;;;;;22.13;43.64;101344.69;5010687;28;20184;-73
2022/08/07 11:09:58;;;;;;;0.00;0.00;;;;;;;22.13;43.25;101336.34;5010577;28;20160;-73
2022/08/07 11:12:33;;;;;;;0.50;0.50;;;;;;;22.21;43.17;101334.47;5010763;28;20192;-73
2022/08/07 11:15:08;;;;;;;0.30;0.30;;;;;;;22.02;43.43;101342.81;5010597;28;20257;-74
2022/08/07 11:17:55;;;;;;;0.00;0.00;;;;;;;21.99;44.18;101336.03;5010145;28;20195;-74
2022/08/07 11:20:36;;;;;;;0.03;0.03;;;;;;;22.06;43.28;101332.59;5010072;28;20175;-73
2022/08/07 11:23:17;;;;;;;0.00;0.00;;;;;;;22.10;43.30;101325.91;5010649;28;20173;-73
2022/08/07 11:26:07;;;;;;;0.47;0.47;;;;;;;22.26;43.31;101328.59;5009076;28;20183;-74
2022/08/07 11:28:44;;;;;;;0.00;0.00;;;;;;;22.58;43.79;101317.25;5008467;28;20583;-73
2022/08/07 11:31:25;;;;;;;0.00;0.00;;;;;;;22.26;42.32;101323.03;5010548;28;20233;-74
2022/08/07 11:34:02;;;;;;;0.00;0.00;;;;;;;22.56;43.87;101312.81;5010750;28;20255;-73
2022/08/07 11:36:52;;;;;;;0.00;0.00;;;;;;;22.45;42.83;101311.06;5010928;28;20276;-73
2022/08/07 11:39:20;;;;;;;0.00;0.00;;;;;;;22.31;44.84;101305.22;5009862;28;20220;-73
2022/08/07 11:41:59;;;;;;;0.00;0.00;;;;;;;22.13;43.95;101302.09;5010396;28;20278;-73
2022/08/07 11:44:24;;;;;;;0.00;0.00;;;;;;;22.08;43.34;101306.00;5010360;28;20173;-73
2022/08/07 11:47:12;;;;;;;0.00;0.00;;;;;;;21.94;43.15;101303.72;5010438;28;20617;-73
2022/08/07 11:50:22;;;;;;;0.00;0.00;;;;;;;21.90;43.73;101304.81;5009916;28;20173;-72